Accueil
METAR-TAF:

METAR-TAF

Aéroports :

Ferrare, Italie

latitude: 44-50N, longitude: 011-37E, altitude: 10 m

Observation

Le bulletin a été fait il y a 1 heure et 13 minutes, à 09:55 UTC
Vent 4 kt de est
Température 10°C
Humidité 87%
Pression 1014 hPa
Visibilité: 1200 m
Nuages épars à une hauteur de 2500 ft
Nuages fragmentés à une hauteur de 7000 ft
brume

METAR: LIPF 250955Z 08004KT 1200 BR SCT025 BKN070 10/08 Q1014 RMK OVC VIS MIN 1200

Heure: 12:08 (11:08 UTC)


TAF: absent

Observations et prévisions météorologiques de plus de 4000 aéroports (messages METAR et TAF).

Les stations disponibles sont représentées par des disques jaunes et rouges sur la carte.

Passer la souris dessus pour voir le nom de la station.

Cliquer dessus pour voir les observations et prévisions météorologiques.

Pour changer de carte: cliquez sur les boutons verts avec une croix noire pour zoomer, sur le bouton vert avec un tiret pour effectuer un zoom arrière, ou sur les flèches vertes pour les cartes adjacentes.


METAR-TAF: